Anaconda, MT

12:06 PM MST on February 25, 2017 (GMT -0700)
goosetown 2 | | Change Station

Elev 5240 ft 46.13 °N, 112.94 °W | Updated 1 minute ago

Mostly Cloudy
Mostly Cloudy
23.9 °F
Feels Like 13 °F
N
11.0
Wind Variable Wind from NW
Gusts 18.0 mph

Today
High -- | Low -- °F
--% Chance of Precip.
Yesterday
High -- | Low -- °F
Precip. -- in
Pressure 29.99 in
Visibility 10.0 miles
Clouds Few 4700 ft
Scattered Clouds 6000 ft
Windchill 13 °F
Dew Point 5 °F
Humidity 44%
Rainfall 0.00 in
Snow Depth Not available.
7:17 AM 6:12 PM
Waning Crescent, 1% visible
METAR KBTM 251853Z AUTO 29010G19KT 10SM FEW047 SCT060 M06/M16 A2982 RMK AO2 SLP156 T10611161
Pressure 29.99 in
Visibility 10.0 miles
Clouds Few 4700 ft
Scattered Clouds 6000 ft
Windchill 13 °F
Dew Point 5 °F
Humidity 44%
Rainfall 0.00 in
Snow Depth Not available.
7:17 AM 6:12 PM
Waning Crescent, 1% visible
METAR KBTM 251853Z AUTO 29010G19KT 10SM FEW047 SCT060 M06/M16 A2982 RMK AO2 SLP156 T10611161

Get Your Daily Forecast Email!

Thanks for signing up!

Be on the lookout for a verification email in your inbox.

You'll start receiving the daily forecast at 8 AM.

×

10-Day Weather Forecast

Almanac

Astronomy

Feb. 25, 2017 Rise Set
Actual Time
Civil Twilight
Nautical Twilight
Astronomical Twilight
Moon
Length of Visible Light
Length of Day
Tomorrow will be .
, % of the Moon is Illuminated

Today's Extremes

State Highs State Lows

Community

WunderPhotos

Upload Photos

1,962,540 photos uploaded!

WunderBlog® & News

Nearby

Air Quality

  Air Quality AQ Index Pollutant
Not available.

Snow Depth

Station Depth Elevation

Earthquake Activity

City Distance Mag. Time & Date
Minimum magnitude displayed is 2.5.

Coastal Water Temperatures

Place Temperature

Stations

Nearby Weather Stations

Station Location Temp. Windchill Dew Point Humidity Wind Precip. Elev Updated Type
                   

Watches & Warnings

There are currently no watches in effect.